sensor_id;sensor_type;location;lat;lon;timestamp;P1;durP1;ratioP1;P2;durP2;ratioP2
8777;SDS011;4425;50.872;4.712;2022-09-09T00:01:22;5.80;;;2.20;;
8777;SDS011;4425;50.872;4.712;2022-09-09T00:03:57;3.73;;;2.10;;
8777;SDS011;4425;50.872;4.712;2022-09-09T00:06:32;5.03;;;2.00;;
8777;SDS011;4425;50.872;4.712;2022-09-09T00:09:10;2.70;;;2.00;;
8777;SDS011;4425;50.872;4.712;2022-09-09T00:11:45;2.57;;;2.00;;
8777;SDS011;4425;50.872;4.712;2022-09-09T00:14:18;4.13;;;2.27;;
8777;SDS011;4425;50.872;4.712;2022-09-09T00:16:54;3.93;;;2.17;;
8777;SDS011;4425;50.872;4.712;2022-09-09T00:19:26;5.13;;;2.53;;
8777;SDS011;4425;50.872;4.712;2022-09-09T00:22:05;3.33;;;2.20;;
8777;SDS011;4425;50.872;4.712;2022-09-09T00:28:24;4.23;;;2.23;;
8777;SDS011;4425;50.872;4.712;2022-09-09T00:31:07;2.47;;;2.03;;
8777;SDS011;4425;50.872;4.712;2022-09-09T00:33:39;3.57;;;1.83;;
8777;SDS011;4425;50.872;4.712;2022-09-09T00:36:09;5.23;;;2.03;;
8777;SDS011;4425;50.872;4.712;2022-09-09T00:38:42;4.10;;;2.07;;
8777;SDS011;4425;50.872;4.712;2022-09-09T00:41:14;3.03;;;1.87;;
8777;SDS011;4425;50.872;4.712;2022-09-09T00:43:52;4.33;;;2.20;;
8777;SDS011;4425;50.872;4.712;2022-09-09T00:46:27;5.40;;;2.13;;
8777;SDS011;4425;50.872;4.712;2022-09-09T00:49:20;3.00;;;2.00;;
8777;SDS011;4425;50.872;4.712;2022-09-09T00:52:02;3.10;;;1.90;;
8777;SDS011;4425;50.872;4.712;2022-09-09T00:54:48;6.60;;;2.20;;
8777;SDS011;4425;50.872;4.712;2022-09-09T00:57:25;4.13;;;1.70;;
8777;SDS011;4425;50.872;4.712;2022-09-09T00:59:58;3.53;;;1.90;;
8777;SDS011;4425;50.872;4.712;2022-09-09T01:02:44;2.60;;;1.53;;
8777;SDS011;4425;50.872;4.712;2022-09-09T01:05:22;3.40;;;1.77;;
8777;SDS011;4425;50.872;4.712;2022-09-09T01:07:56;4.67;;;2.30;;
8777;SDS011;4425;50.872;4.712;2022-09-09T01:10:30;4.97;;;1.93;;
8777;SDS011;4425;50.872;4.712;2022-09-09T01:13:13;5.73;;;1.90;;
8777;SDS011;4425;50.872;4.712;2022-09-09T01:15:54;2.40;;;1.87;;
8777;SDS011;4425;50.872;4.712;2022-09-09T01:18:21;3.20;;;1.80;;
8777;SDS011;4425;50.872;4.712;2022-09-09T01:20:55;3.60;;;1.93;;
8777;SDS011;4425;50.872;4.712;2022-09-09T01:26:35;2.93;;;1.93;;
8777;SDS011;4425;50.872;4.712;2022-09-09T01:29:06;3.20;;;1.83;;
8777;SDS011;4425;50.872;4.712;2022-09-09T01:31:36;5.97;;;2.53;;
8777;SDS011;4425;50.872;4.712;2022-09-09T01:34:09;21.47;;;13.43;;
8777;SDS011;4425;50.872;4.712;2022-09-09T01:36:39;3.27;;;1.83;;
8777;SDS011;4425;50.872;4.712;2022-09-09T01:39:11;3.67;;;2.03;;
8777;SDS011;4425;50.872;4.712;2022-09-09T01:41:41;2.87;;;1.80;;
8777;SDS011;4425;50.872;4.712;2022-09-09T01:44:09;4.03;;;2.03;;
8777;SDS011;4425;50.872;4.712;2022-09-09T01:50:19;7.03;;;1.80;;
8777;SDS011;4425;50.872;4.712;2022-09-09T01:52:49;6.63;;;2.30;;
8777;SDS011;4425;50.872;4.712;2022-09-09T01:55:19;6.50;;;2.23;;
8777;SDS011;4425;50.872;4.712;2022-09-09T01:58:10;9.20;;;2.30;;
8777;SDS011;4425;50.872;4.712;2022-09-09T02:00:52;5.60;;;2.40;;
8777;SDS011;4425;50.872;4.712;2022-09-09T02:03:31;8.30;;;2.30;;
8777;SDS011;4425;50.872;4.712;2022-09-09T02:06:05;4.23;;;1.90;;
8777;SDS011;4425;50.872;4.712;2022-09-09T02:15:40;6.43;;;2.10;;
8777;SDS011;4425;50.872;4.712;2022-09-09T02:18:13;7.97;;;2.50;;
8777;SDS011;4425;50.872;4.712;2022-09-09T02:20:54;7.83;;;2.43;;
8777;SDS011;4425;50.872;4.712;2022-09-09T02:23:25;8.73;;;2.77;;
8777;SDS011;4425;50.872;4.712;2022-09-09T02:26:00;6.13;;;2.10;;
8777;SDS011;4425;50.872;4.712;2022-09-09T02:28:29;8.07;;;2.40;;
8777;SDS011;4425;50.872;4.712;2022-09-09T02:31:03;4.20;;;2.33;;
8777;SDS011;4425;50.872;4.712;2022-09-09T02:33:37;4.03;;;2.00;;
8777;SDS011;4425;50.872;4.712;2022-09-09T02:39:09;7.53;;;2.27;;
8777;SDS011;4425;50.872;4.712;2022-09-09T02:41:42;6.17;;;2.50;;
8777;SDS011;4425;50.872;4.712;2022-09-09T02:46:51;4.10;;;2.10;;
8777;SDS011;4425;50.872;4.712;2022-09-09T02:49:36;5.53;;;1.83;;
8777;SDS011;4425;50.872;4.712;2022-09-09T02:52:11;9.00;;;2.40;;
8777;SDS011;4425;50.872;4.712;2022-09-09T02:54:42;6.63;;;2.23;;
8777;SDS011;4425;50.872;4.712;2022-09-09T02:57:11;5.47;;;2.07;;
8777;SDS011;4425;50.872;4.712;2022-09-09T02:59:40;6.93;;;2.47;;
8777;SDS011;4425;50.872;4.712;2022-09-09T03:02:14;6.10;;;2.30;;
8777;SDS011;4425;50.872;4.712;2022-09-09T03:04:51;9.67;;;2.53;;
8777;SDS011;4425;50.872;4.712;2022-09-09T03:07:20;7.80;;;2.20;;
8777;SDS011;4425;50.872;4.712;2022-09-09T03:09:52;9.67;;;2.27;;
8777;SDS011;4425;50.872;4.712;2022-09-09T03:16:00;11.57;;;2.40;;
8777;SDS011;4425;50.872;4.712;2022-09-09T03:18:30;8.87;;;2.60;;
8777;SDS011;4425;50.872;4.712;2022-09-09T03:20:58;8.33;;;2.70;;
8777;SDS011;4425;50.872;4.712;2022-09-09T03:23:26;5.63;;;2.27;;
8777;SDS011;4425;50.872;4.712;2022-09-09T03:26:08;4.70;;;2.37;;
8777;SDS011;4425;50.872;4.712;2022-09-09T03:31:13;6.33;;;2.07;;
8777;SDS011;4425;50.872;4.712;2022-09-09T03:33:46;8.13;;;2.40;;
8777;SDS011;4425;50.872;4.712;2022-09-09T03:36:15;11.43;;;2.83;;
8777;SDS011;4425;50.872;4.712;2022-09-09T03:38:42;6.90;;;2.90;;
8777;SDS011;4425;50.872;4.712;2022-09-09T03:41:10;7.37;;;2.57;;
8777;SDS011;4425;50.872;4.712;2022-09-09T03:49:59;7.57;;;2.63;;
8777;SDS011;4425;50.872;4.712;2022-09-09T03:56:08;6.07;;;2.70;;
8777;SDS011;4425;50.872;4.712;2022-09-09T03:58:37;8.20;;;2.80;;
8777;SDS011;4425;50.872;4.712;2022-09-09T04:01:09;7.53;;;2.40;;
8777;SDS011;4425;50.872;4.712;2022-09-09T04:03:41;9.00;;;2.20;;
8777;SDS011;4425;50.872;4.712;2022-09-09T04:06:12;8.60;;;2.70;;
8777;SDS011;4425;50.872;4.712;2022-09-09T04:08:41;9.57;;;2.80;;
8777;SDS011;4425;50.872;4.712;2022-09-09T04:11:10;9.90;;;2.80;;
8777;SDS011;4425;50.872;4.712;2022-09-09T04:13:40;7.07;;;2.43;;
8777;SDS011;4425;50.872;4.712;2022-09-09T04:16:11;9.73;;;2.70;;
8777;SDS011;4425;50.872;4.712;2022-09-09T04:18:51;9.60;;;2.80;;
8777;SDS011;4425;50.872;4.712;2022-09-09T04:21:36;9.37;;;2.80;;
8777;SDS011;4425;50.872;4.712;2022-09-09T04:24:08;5.73;;;2.70;;
8777;SDS011;4425;50.872;4.712;2022-09-09T04:26:37;7.30;;;2.90;;
8777;SDS011;4425;50.872;4.712;2022-09-09T04:29:07;12.77;;;2.87;;
8777;SDS011;4425;50.872;4.712;2022-09-09T04:31:47;8.57;;;2.73;;
8777;SDS011;4425;50.872;4.712;2022-09-09T04:34:15;14.70;;;8.93;;
8777;SDS011;4425;50.872;4.712;2022-09-09T04:36:45;7.93;;;2.63;;
8777;SDS011;4425;50.872;4.712;2022-09-09T04:39:15;11.57;;;2.70;;
8777;SDS011;4425;50.872;4.712;2022-09-09T04:41:58;8.90;;;2.60;;
8777;SDS011;4425;50.872;4.712;2022-09-09T04:44:28;8.77;;;3.00;;
8777;SDS011;4425;50.872;4.712;2022-09-09T04:46:59;12.23;;;3.17;;
8777;SDS011;4425;50.872;4.712;2022-09-09T04:49:27;9.67;;;2.80;;
8777;SDS011;4425;50.872;4.712;2022-09-09T04:52:03;10.73;;;3.03;;
8777;SDS011;4425;50.872;4.712;2022-09-09T04:54:32;8.63;;;2.80;;
8777;SDS011;4425;50.872;4.712;2022-09-09T04:57:02;8.73;;;2.80;;
8777;SDS011;4425;50.872;4.712;2022-09-09T04:59:47;10.23;;;3.20;;
8777;SDS011;4425;50.872;4.712;2022-09-09T05:02:16;7.60;;;2.57;;
8777;SDS011;4425;50.872;4.712;2022-09-09T05:04:47;7.47;;;2.80;;
8777;SDS011;4425;50.872;4.712;2022-09-09T05:07:18;9.53;;;2.80;;
8777;SDS011;4425;50.872;4.712;2022-09-09T05:09:47;7.93;;;3.00;;
8777;SDS011;4425;50.872;4.712;2022-09-09T05:12:16;9.63;;;3.37;;
8777;SDS011;4425;50.872;4.712;2022-09-09T05:14:49;10.97;;;3.33;;
8777;SDS011;4425;50.872;4.712;2022-09-09T05:24:44;8.87;;;3.00;;
8777;SDS011;4425;50.872;4.712;2022-09-09T05:27:22;12.97;;;3.20;;
8777;SDS011;4425;50.872;4.712;2022-09-09T05:29:50;9.43;;;3.33;;
8777;SDS011;4425;50.872;4.712;2022-09-09T05:32:23;11.37;;;3.13;;
8777;SDS011;4425;50.872;4.712;2022-09-09T05:34:51;6.90;;;2.70;;
8777;SDS011;4425;50.872;4.712;2022-09-09T05:37:22;12.57;;;3.23;;
8777;SDS011;4425;50.872;4.712;2022-09-09T05:39:51;9.93;;;3.80;;
8777;SDS011;4425;50.872;4.712;2022-09-09T05:42:19;13.03;;;3.50;;
8777;SDS011;4425;50.872;4.712;2022-09-09T05:44:51;12.00;;;3.27;;
8777;SDS011;4425;50.872;4.712;2022-09-09T05:47:20;8.37;;;3.00;;
8777;SDS011;4425;50.872;4.712;2022-09-09T05:52:21;10.77;;;3.20;;
8777;SDS011;4425;50.872;4.712;2022-09-09T05:54:55;13.20;;;3.10;;
8777;SDS011;4425;50.872;4.712;2022-09-09T05:57:24;6.83;;;2.73;;
8777;SDS011;4425;50.872;4.712;2022-09-09T05:59:51;6.97;;;2.57;;
8777;SDS011;4425;50.872;4.712;2022-09-09T06:02:21;8.03;;;2.47;;
8777;SDS011;4425;50.872;4.712;2022-09-09T06:04:52;9.77;;;3.00;;
8777;SDS011;4425;50.872;4.712;2022-09-09T06:07:24;13.13;;;2.90;;
8777;SDS011;4425;50.872;4.712;2022-09-09T06:10:00;5.60;;;2.33;;
8777;SDS011;4425;50.872;4.712;2022-09-09T06:12:27;8.70;;;3.03;;
8777;SDS011;4425;50.872;4.712;2022-09-09T06:14:54;7.20;;;2.90;;
8777;SDS011;4425;50.872;4.712;2022-09-09T06:17:23;14.17;;;2.90;;
8777;SDS011;4425;50.872;4.712;2022-09-09T06:19:51;12.90;;;2.90;;
8777;SDS011;4425;50.872;4.712;2022-09-09T06:22:20;5.67;;;2.30;;
8777;SDS011;4425;50.872;4.712;2022-09-09T06:24:48;8.47;;;2.73;;
8777;SDS011;4425;50.872;4.712;2022-09-09T06:27:17;7.73;;;2.90;;
8777;SDS011;4425;50.872;4.712;2022-09-09T06:29:45;15.57;;;3.90;;
8777;SDS011;4425;50.872;4.712;2022-09-09T06:32:17;10.63;;;2.70;;
8777;SDS011;4425;50.872;4.712;2022-09-09T06:34:45;7.80;;;2.90;;
8777;SDS011;4425;50.872;4.712;2022-09-09T06:37:14;13.13;;;3.07;;
8777;SDS011;4425;50.872;4.712;2022-09-09T06:39:41;8.50;;;2.97;;
8777;SDS011;4425;50.872;4.712;2022-09-09T06:42:12;12.73;;;3.17;;
8777;SDS011;4425;50.872;4.712;2022-09-09T06:44:42;7.33;;;2.70;;
8777;SDS011;4425;50.872;4.712;2022-09-09T06:47:10;8.53;;;2.63;;
8777;SDS011;4425;50.872;4.712;2022-09-09T06:52:10;6.90;;;2.40;;
8777;SDS011;4425;50.872;4.712;2022-09-09T06:54:38;9.80;;;2.70;;
8777;SDS011;4425;50.872;4.712;2022-09-09T06:57:07;8.97;;;2.40;;
8777;SDS011;4425;50.872;4.712;2022-09-09T06:59:36;9.23;;;2.27;;
8777;SDS011;4425;50.872;4.712;2022-09-09T07:02:05;8.87;;;2.67;;
8777;SDS011;4425;50.872;4.712;2022-09-09T07:04:34;10.27;;;2.50;;
8777;SDS011;4425;50.872;4.712;2022-09-09T07:07:02;9.70;;;2.33;;
8777;SDS011;4425;50.872;4.712;2022-09-09T07:19:07;9.17;;;2.53;;
8777;SDS011;4425;50.872;4.712;2022-09-09T07:25:17;6.73;;;2.30;;
8777;SDS011;4425;50.872;4.712;2022-09-09T07:27:47;11.07;;;2.87;;
8777;SDS011;4425;50.872;4.712;2022-09-09T07:30:14;12.00;;;2.77;;
8777;SDS011;4425;50.872;4.712;2022-09-09T07:32:41;9.30;;;2.57;;
8777;SDS011;4425;50.872;4.712;2022-09-09T07:35:10;8.33;;;2.83;;
8777;SDS011;4425;50.872;4.712;2022-09-09T07:37:38;8.97;;;2.93;;
8777;SDS011;4425;50.872;4.712;2022-09-09T07:40:06;9.80;;;2.90;;
8777;SDS011;4425;50.872;4.712;2022-09-09T07:42:35;7.57;;;2.50;;
8777;SDS011;4425;50.872;4.712;2022-09-09T07:45:11;9.80;;;2.43;;
8777;SDS011;4425;50.872;4.712;2022-09-09T07:47:39;6.23;;;2.97;;
8777;SDS011;4425;50.872;4.712;2022-09-09T07:50:08;9.83;;;2.90;;
8777;SDS011;4425;50.872;4.712;2022-09-09T07:52:40;9.43;;;3.50;;
8777;SDS011;4425;50.872;4.712;2022-09-09T07:55:13;8.93;;;2.80;;
8777;SDS011;4425;50.872;4.712;2022-09-09T07:57:40;7.20;;;2.53;;
8777;SDS011;4425;50.872;4.712;2022-09-09T08:00:07;7.23;;;2.40;;
8777;SDS011;4425;50.872;4.712;2022-09-09T08:02:36;5.13;;;2.53;;
8777;SDS011;4425;50.872;4.712;2022-09-09T08:05:03;8.20;;;2.40;;
8777;SDS011;4425;50.872;4.712;2022-09-09T08:07:33;7.37;;;2.60;;
8777;SDS011;4425;50.872;4.712;2022-09-09T08:10:02;6.47;;;2.40;;
8777;SDS011;4425;50.872;4.712;2022-09-09T08:12:29;10.37;;;2.80;;
8777;SDS011;4425;50.872;4.712;2022-09-09T08:14:57;7.90;;;2.30;;
8777;SDS011;4425;50.872;4.712;2022-09-09T08:17:25;11.13;;;2.53;;
8777;SDS011;4425;50.872;4.712;2022-09-09T08:19:53;10.35;;;2.72;;
8777;SDS011;4425;50.872;4.712;2022-09-09T08:22:21;11.97;;;2.70;;
8777;SDS011;4425;50.872;4.712;2022-09-09T08:24:55;8.30;;;2.50;;
8777;SDS011;4425;50.872;4.712;2022-09-09T08:27:23;7.22;;;2.20;;
8777;SDS011;4425;50.872;4.712;2022-09-09T08:29:51;7.10;;;2.38;;
8777;SDS011;4425;50.872;4.712;2022-09-09T08:32:21;6.25;;;2.22;;
8777;SDS011;4425;50.872;4.712;2022-09-09T08:34:48;4.90;;;2.20;;
8777;SDS011;4425;50.872;4.712;2022-09-09T08:37:17;6.45;;;2.55;;
8777;SDS011;4425;50.872;4.712;2022-09-09T08:39:48;5.38;;;2.15;;
8777;SDS011;4425;50.872;4.712;2022-09-09T08:42:24;5.53;;;2.28;;
8777;SDS011;4425;50.872;4.712;2022-09-09T08:45:10;9.10;;;2.35;;
8777;SDS011;4425;50.872;4.712;2022-09-09T08:47:47;10.63;;;2.47;;
8777;SDS011;4425;50.872;4.712;2022-09-09T08:50:23;10.20;;;2.88;;
8777;SDS011;4425;50.872;4.712;2022-09-09T08:52:55;12.00;;;2.65;;
8777;SDS011;4425;50.872;4.712;2022-09-09T08:55:34;5.78;;;2.30;;
8777;SDS011;4425;50.872;4.712;2022-09-09T08:58:14;8.38;;;2.35;;
8777;SDS011;4425;50.872;4.712;2022-09-09T09:00:59;6.10;;;2.22;;
8777;SDS011;4425;50.872;4.712;2022-09-09T09:03:40;8.35;;;2.53;;
8777;SDS011;4425;50.872;4.712;2022-09-09T09:06:17;8.05;;;3.00;;
8777;SDS011;4425;50.872;4.712;2022-09-09T09:09:10;8.27;;;2.50;;
8777;SDS011;4425;50.872;4.712;2022-09-09T09:11:53;7.07;;;2.20;;
8777;SDS011;4425;50.872;4.712;2022-09-09T09:17:11;7.13;;;2.43;;
8777;SDS011;4425;50.872;4.712;2022-09-09T09:19:41;11.90;;;3.07;;
8777;SDS011;4425;50.872;4.712;2022-09-09T09:22:20;9.80;;;2.70;;
8777;SDS011;4425;50.872;4.712;2022-09-09T09:24:53;9.57;;;2.93;;
8777;SDS011;4425;50.872;4.712;2022-09-09T09:31:06;6.75;;;2.55;;
8777;SDS011;4425;50.872;4.712;2022-09-09T09:33:41;11.90;;;2.83;;
8777;SDS011;4425;50.872;4.712;2022-09-09T09:36:16;7.90;;;2.27;;
8777;SDS011;4425;50.872;4.712;2022-09-09T09:38:51;12.03;;;2.93;;
8777;SDS011;4425;50.872;4.712;2022-09-09T09:41:32;7.53;;;2.70;;
8777;SDS011;4425;50.872;4.712;2022-09-09T09:44:05;8.50;;;3.03;;
8777;SDS011;4425;50.872;4.712;2022-09-09T09:46:50;6.93;;;2.57;;
8777;SDS011;4425;50.872;4.712;2022-09-09T09:49:18;9.43;;;2.77;;
8777;SDS011;4425;50.872;4.712;2022-09-09T09:51:47;7.70;;;2.67;;
8777;SDS011;4425;50.872;4.712;2022-09-09T09:54:18;12.20;;;3.00;;
8777;SDS011;4425;50.872;4.712;2022-09-09T09:56:54;8.60;;;2.80;;
8777;SDS011;4425;50.872;4.712;2022-09-09T09:59:23;10.43;;;3.00;;
8777;SDS011;4425;50.872;4.712;2022-09-09T10:02:15;9.07;;;2.87;;
8777;SDS011;4425;50.872;4.712;2022-09-09T10:04:46;7.60;;;2.80;;
8777;SDS011;4425;50.872;4.712;2022-09-09T10:07:17;8.43;;;2.83;;
8777;SDS011;4425;50.872;4.712;2022-09-09T10:09:48;6.67;;;2.67;;
8777;SDS011;4425;50.872;4.712;2022-09-09T10:14:59;7.10;;;2.67;;
8777;SDS011;4425;50.872;4.712;2022-09-09T10:17:36;10.93;;;3.10;;
8777;SDS011;4425;50.872;4.712;2022-09-09T10:20:17;8.57;;;2.80;;
8777;SDS011;4425;50.872;4.712;2022-09-09T10:22:56;11.10;;;2.97;;
8777;SDS011;4425;50.872;4.712;2022-09-09T10:25:38;6.63;;;2.50;;
8777;SDS011;4425;50.872;4.712;2022-09-09T10:31:24;8.80;;;3.00;;
8777;SDS011;4425;50.872;4.712;2022-09-09T10:34:11;6.70;;;3.23;;
8777;SDS011;4425;50.872;4.712;2022-09-09T10:40:28;6.27;;;2.70;;
8777;SDS011;4425;50.872;4.712;2022-09-09T10:43:13;6.37;;;2.97;;
8777;SDS011;4425;50.872;4.712;2022-09-09T10:45:49;8.10;;;2.70;;
8777;SDS011;4425;50.872;4.712;2022-09-09T10:48:30;8.30;;;2.80;;
8777;SDS011;4425;50.872;4.712;2022-09-09T10:53:59;9.13;;;2.93;;
8777;SDS011;4425;50.872;4.712;2022-09-09T10:56:39;6.60;;;2.80;;
8777;SDS011;4425;50.872;4.712;2022-09-09T10:59:10;7.93;;;2.80;;
8777;SDS011;4425;50.872;4.712;2022-09-09T11:01:56;5.70;;;2.63;;
8777;SDS011;4425;50.872;4.712;2022-09-09T11:04:30;6.47;;;3.30;;
8777;SDS011;4425;50.872;4.712;2022-09-09T11:07:05;8.93;;;3.00;;
8777;SDS011;4425;50.872;4.712;2022-09-09T11:09:37;10.07;;;3.13;;
8777;SDS011;4425;50.872;4.712;2022-09-09T11:12:09;7.73;;;3.10;;
8777;SDS011;4425;50.872;4.712;2022-09-09T11:14:46;8.00;;;2.93;;
8777;SDS011;4425;50.872;4.712;2022-09-09T11:17:18;5.55;;;2.38;;
8777;SDS011;4425;50.872;4.712;2022-09-09T11:19:49;6.55;;;2.75;;
8777;SDS011;4425;50.872;4.712;2022-09-09T11:22:26;10.52;;;3.17;;
8777;SDS011;4425;50.872;4.712;2022-09-09T11:24:59;7.55;;;3.17;;
8777;SDS011;4425;50.872;4.712;2022-09-09T11:27:43;7.70;;;2.97;;
8777;SDS011;4425;50.872;4.712;2022-09-09T11:30:47;9.45;;;3.30;;
8777;SDS011;4425;50.872;4.712;2022-09-09T11:33:37;9.57;;;3.35;;
8777;SDS011;4425;50.872;4.712;2022-09-09T11:36:41;11.07;;;2.85;;
8777;SDS011;4425;50.872;4.712;2022-09-09T11:39:35;7.82;;;3.10;;
8777;SDS011;4425;50.872;4.712;2022-09-09T11:42:15;5.93;;;2.72;;
8777;SDS011;4425;50.872;4.712;2022-09-09T11:44:45;6.82;;;2.53;;
8777;SDS011;4425;50.872;4.712;2022-09-09T11:47:18;4.78;;;2.28;;
8777;SDS011;4425;50.872;4.712;2022-09-09T11:49:50;6.45;;;2.35;;
8777;SDS011;4425;50.872;4.712;2022-09-09T11:52:38;5.85;;;2.30;;
8777;SDS011;4425;50.872;4.712;2022-09-09T11:55:10;5.07;;;2.30;;
8777;SDS011;4425;50.872;4.712;2022-09-09T11:57:57;7.82;;;2.45;;
8777;SDS011;4425;50.872;4.712;2022-09-09T12:00:33;7.30;;;2.30;;
8777;SDS011;4425;50.872;4.712;2022-09-09T12:06:08;4.35;;;2.30;;
8777;SDS011;4425;50.872;4.712;2022-09-09T12:08:40;5.07;;;2.53;;
8777;SDS011;4425;50.872;4.712;2022-09-09T12:11:22;4.13;;;2.10;;
8777;SDS011;4425;50.872;4.712;2022-09-09T12:13:54;3.45;;;1.88;;
8777;SDS011;4425;50.872;4.712;2022-09-09T12:16:30;5.60;;;2.53;;
8777;SDS011;4425;50.872;4.712;2022-09-09T12:19:03;4.05;;;2.20;;
8777;SDS011;4425;50.872;4.712;2022-09-09T12:21:34;5.55;;;2.25;;
8777;SDS011;4425;50.872;4.712;2022-09-09T12:24:07;3.35;;;2.00;;
8777;SDS011;4425;50.872;4.712;2022-09-09T12:26:42;5.55;;;2.20;;
8777;SDS011;4425;50.872;4.712;2022-09-09T12:29:18;2.97;;;1.80;;
8777;SDS011;4425;50.872;4.712;2022-09-09T12:31:56;5.20;;;2.25;;
8777;SDS011;4425;50.872;4.712;2022-09-09T12:34:36;3.53;;;2.08;;
8777;SDS011;4425;50.872;4.712;2022-09-09T12:37:08;4.85;;;2.30;;
8777;SDS011;4425;50.872;4.712;2022-09-09T12:40:02;6.60;;;2.25;;
8777;SDS011;4425;50.872;4.712;2022-09-09T12:46:14;4.80;;;2.17;;
8777;SDS011;4425;50.872;4.712;2022-09-09T12:48:48;3.20;;;1.95;;
8777;SDS011;4425;50.872;4.712;2022-09-09T12:51:18;4.88;;;2.00;;
8777;SDS011;4425;50.872;4.712;2022-09-09T12:53:52;3.53;;;1.95;;
8777;SDS011;4425;50.872;4.712;2022-09-09T12:56:21;3.63;;;2.17;;
8777;SDS011;4425;50.872;4.712;2022-09-09T12:58:52;5.40;;;2.22;;
8777;SDS011;4425;50.872;4.712;2022-09-09T13:01:24;5.90;;;1.98;;
8777;SDS011;4425;50.872;4.712;2022-09-09T13:03:53;3.78;;;2.05;;
8777;SDS011;4425;50.872;4.712;2022-09-09T13:10:03;4.45;;;2.00;;
8777;SDS011;4425;50.872;4.712;2022-09-09T13:12:31;7.90;;;2.00;;
8777;SDS011;4425;50.872;4.712;2022-09-09T13:14:59;3.45;;;1.80;;
8777;SDS011;4425;50.872;4.712;2022-09-09T13:17:29;2.50;;;1.60;;
8777;SDS011;4425;50.872;4.712;2022-09-09T13:19:59;3.60;;;1.92;;
8777;SDS011;4425;50.872;4.712;2022-09-09T13:22:41;5.57;;;1.70;;
8777;SDS011;4425;50.872;4.712;2022-09-09T13:25:17;3.88;;;1.77;;
8777;SDS011;4425;50.872;4.712;2022-09-09T13:33:42;4.70;;;2.90;;
8777;SDS011;4425;50.872;4.712;2022-09-09T13:36:16;5.10;;;2.00;;
8777;SDS011;4425;50.872;4.712;2022-09-09T13:38:56;3.15;;;1.60;;
8777;SDS011;4425;50.872;4.712;2022-09-09T13:41:29;3.10;;;1.80;;
8777;SDS011;4425;50.872;4.712;2022-09-09T13:43:58;2.13;;;1.55;;
8777;SDS011;4425;50.872;4.712;2022-09-09T13:46:33;3.90;;;1.73;;
8777;SDS011;4425;50.872;4.712;2022-09-09T13:49:18;5.38;;;1.70;;
8777;SDS011;4425;50.872;4.712;2022-09-09T13:51:48;5.90;;;1.90;;
8777;SDS011;4425;50.872;4.712;2022-09-09T13:54:19;3.42;;;1.83;;
8777;SDS011;4425;50.872;4.712;2022-09-09T13:56:47;3.22;;;1.77;;
8777;SDS011;4425;50.872;4.712;2022-09-09T13:59:19;3.70;;;1.88;;
8777;SDS011;4425;50.872;4.712;2022-09-09T14:08:55;4.38;;;1.80;;
8777;SDS011;4425;50.872;4.712;2022-09-09T14:11:23;2.08;;;1.50;;
8777;SDS011;4425;50.872;4.712;2022-09-09T14:13:51;3.60;;;1.70;;
8777;SDS011;4425;50.872;4.712;2022-09-09T14:16:19;2.65;;;1.42;;
8777;SDS011;4425;50.872;4.712;2022-09-09T14:18:53;1.65;;;1.50;;
8777;SDS011;4425;50.872;4.712;2022-09-09T14:21:22;2.67;;;1.70;;
8777;SDS011;4425;50.872;4.712;2022-09-09T14:23:53;4.60;;;2.65;;
8777;SDS011;4425;50.872;4.712;2022-09-09T14:26:27;4.43;;;1.90;;
8777;SDS011;4425;50.872;4.712;2022-09-09T14:28:58;5.22;;;1.83;;
8777;SDS011;4425;50.872;4.712;2022-09-09T14:31:26;2.50;;;1.63;;
8777;SDS011;4425;50.872;4.712;2022-09-09T14:33:53;2.67;;;1.60;;
8777;SDS011;4425;50.872;4.712;2022-09-09T14:36:25;3.40;;;1.70;;
8777;SDS011;4425;50.872;4.712;2022-09-09T14:42:00;2.88;;;1.90;;
8777;SDS011;4425;50.872;4.712;2022-09-09T14:44:27;2.67;;;1.70;;
8777;SDS011;4425;50.872;4.712;2022-09-09T14:46:54;2.00;;;1.60;;
8777;SDS011;4425;50.872;4.712;2022-09-09T14:49:21;2.00;;;1.70;;
8777;SDS011;4425;50.872;4.712;2022-09-09T14:51:49;1.92;;;1.55;;
8777;SDS011;4425;50.872;4.712;2022-09-09T14:56:52;4.32;;;2.00;;
8777;SDS011;4425;50.872;4.712;2022-09-09T14:59:21;4.47;;;1.95;;
8777;SDS011;4425;50.872;4.712;2022-09-09T15:01:48;4.72;;;1.73;;
8777;SDS011;4425;50.872;4.712;2022-09-09T15:04:15;3.10;;;1.80;;
8777;SDS011;4425;50.872;4.712;2022-09-09T15:06:43;4.72;;;2.17;;
8777;SDS011;4425;50.872;4.712;2022-09-09T15:09:15;5.03;;;1.95;;
8777;SDS011;4425;50.872;4.712;2022-09-09T15:11:53;4.28;;;2.20;;
8777;SDS011;4425;50.872;4.712;2022-09-09T15:14:24;4.13;;;1.67;;
8777;SDS011;4425;50.872;4.712;2022-09-09T15:16:52;5.78;;;2.00;;
8777;SDS011;4425;50.872;4.712;2022-09-09T15:19:23;2.90;;;1.77;;
8777;SDS011;4425;50.872;4.712;2022-09-09T15:24:22;5.10;;;1.98;;
8777;SDS011;4425;50.872;4.712;2022-09-09T15:26:51;3.58;;;1.90;;
8777;SDS011;4425;50.872;4.712;2022-09-09T15:29:21;1.50;;;1.40;;
8777;SDS011;4425;50.872;4.712;2022-09-09T15:37:26;3.13;;;1.70;;
8777;SDS011;4425;50.872;4.712;2022-09-09T15:39:54;1.83;;;1.70;;
8777;SDS011;4425;50.872;4.712;2022-09-09T15:42:23;4.03;;;1.88;;
8777;SDS011;4425;50.872;4.712;2022-09-09T15:44:51;5.55;;;1.73;;
8777;SDS011;4425;50.872;4.712;2022-09-09T15:47:19;2.50;;;1.70;;
8777;SDS011;4425;50.872;4.712;2022-09-09T15:49:49;4.60;;;2.10;;
8777;SDS011;4425;50.872;4.712;2022-09-09T15:52:20;3.05;;;1.92;;
8777;SDS011;4425;50.872;4.712;2022-09-09T15:54:47;3.38;;;1.67;;
8777;SDS011;4425;50.872;4.712;2022-09-09T15:57:14;5.70;;;2.33;;
8777;SDS011;4425;50.872;4.712;2022-09-09T15:59:42;5.40;;;1.83;;
8777;SDS011;4425;50.872;4.712;2022-09-09T16:02:10;3.60;;;1.90;;
8777;SDS011;4425;50.872;4.712;2022-09-09T16:04:39;3.70;;;1.95;;
8777;SDS011;4425;50.872;4.712;2022-09-09T16:07:07;2.92;;;1.60;;
8777;SDS011;4425;50.872;4.712;2022-09-09T16:09:34;2.88;;;2.00;;
8777;SDS011;4425;50.872;4.712;2022-09-09T16:12:02;5.82;;;2.42;;
8777;SDS011;4425;50.872;4.712;2022-09-09T16:14:34;3.97;;;2.13;;
8777;SDS011;4425;50.872;4.712;2022-09-09T16:17:06;1.95;;;1.67;;
8777;SDS011;4425;50.872;4.712;2022-09-09T16:22:29;4.38;;;2.00;;
8777;SDS011;4425;50.872;4.712;2022-09-09T16:24:56;3.03;;;1.70;;
8777;SDS011;4425;50.872;4.712;2022-09-09T16:27:23;3.90;;;1.90;;
8777;SDS011;4425;50.872;4.712;2022-09-09T16:29:51;2.08;;;1.80;;
8777;SDS011;4425;50.872;4.712;2022-09-09T16:32:19;3.70;;;1.65;;
8777;SDS011;4425;50.872;4.712;2022-09-09T16:34:47;2.50;;;1.70;;
8777;SDS011;4425;50.872;4.712;2022-09-09T16:37:14;1.73;;;1.63;;
8777;SDS011;4425;50.872;4.712;2022-09-09T16:39:44;2.15;;;1.83;;
8777;SDS011;4425;50.872;4.712;2022-09-09T16:42:14;3.28;;;1.88;;
8777;SDS011;4425;50.872;4.712;2022-09-09T16:48:18;4.90;;;2.22;;
8777;SDS011;4425;50.872;4.712;2022-09-09T16:50:45;5.28;;;2.05;;
8777;SDS011;4425;50.872;4.712;2022-09-09T16:53:13;3.08;;;1.90;;
8777;SDS011;4425;50.872;4.712;2022-09-09T16:55:42;8.88;;;2.70;;
8777;SDS011;4425;50.872;4.712;2022-09-09T16:58:10;4.80;;;2.30;;
8777;SDS011;4425;50.872;4.712;2022-09-09T17:00:37;5.25;;;2.03;;
8777;SDS011;4425;50.872;4.712;2022-09-09T17:03:04;2.08;;;1.75;;
8777;SDS011;4425;50.872;4.712;2022-09-09T17:05:31;3.05;;;1.70;;
8777;SDS011;4425;50.872;4.712;2022-09-09T17:07:58;4.43;;;1.90;;
8777;SDS011;4425;50.872;4.712;2022-09-09T17:10:25;2.10;;;1.90;;
8777;SDS011;4425;50.872;4.712;2022-09-09T17:12:54;2.40;;;1.80;;
8777;SDS011;4425;50.872;4.712;2022-09-09T17:15:21;1.63;;;1.52;;
8777;SDS011;4425;50.872;4.712;2022-09-09T17:17:50;1.55;;;1.45;;
8777;SDS011;4425;50.872;4.712;2022-09-09T17:20:23;2.80;;;1.45;;
8777;SDS011;4425;50.872;4.712;2022-09-09T17:33:04;5.03;;;1.77;;
8777;SDS011;4425;50.872;4.712;2022-09-09T17:38:26;1.77;;;1.67;;
8777;SDS011;4425;50.872;4.712;2022-09-09T17:41:01;1.83;;;1.60;;
8777;SDS011;4425;50.872;4.712;2022-09-09T17:43:29;2.80;;;1.70;;
8777;SDS011;4425;50.872;4.712;2022-09-09T17:46:00;2.17;;;1.50;;
8777;SDS011;4425;50.872;4.712;2022-09-09T17:48:33;2.42;;;1.70;;
8777;SDS011;4425;50.872;4.712;2022-09-09T17:51:02;2.13;;;1.52;;
8777;SDS011;4425;50.872;4.712;2022-09-09T17:53:30;2.15;;;1.52;;
8777;SDS011;4425;50.872;4.712;2022-09-09T17:56:02;2.97;;;1.70;;
8777;SDS011;4425;50.872;4.712;2022-09-09T17:58:31;4.88;;;2.00;;
8777;SDS011;4425;50.872;4.712;2022-09-09T18:01:01;2.42;;;1.98;;
8777;SDS011;4425;50.872;4.712;2022-09-09T18:03:31;3.63;;;1.90;;
8777;SDS011;4425;50.872;4.712;2022-09-09T18:06:01;2.30;;;1.80;;
8777;SDS011;4425;50.872;4.712;2022-09-09T18:08:30;3.83;;;2.10;;